createdAt,value
2018-08-19T00:00:55.849Z,1000.82
2018-08-19T00:01:55.888Z,1000.80
2018-08-19T00:02:55.926Z,1000.78
2018-08-19T00:03:55.967Z,1000.79
2018-08-19T00:04:56.003Z,1000.78
2018-08-19T00:05:56.042Z,1000.75
2018-08-19T00:06:56.084Z,1000.79
2018-08-19T00:07:56.123Z,1000.78
2018-08-19T00:08:56.157Z,1000.80
2018-08-19T00:09:56.193Z,1000.79
2018-08-19T00:10:56.233Z,1000.80
2018-08-19T00:11:56.274Z,1000.78
2018-08-19T00:12:56.311Z,1000.77
2018-08-19T00:13:56.348Z,1000.76
2018-08-19T00:14:56.394Z,1000.75
2018-08-19T00:15:56.433Z,1000.72
2018-08-19T00:16:56.465Z,1000.73
2018-08-19T00:17:56.503Z,1000.71
2018-08-19T00:18:56.541Z,1000.71
2018-08-19T00:19:56.589Z,1000.71
2018-08-19T00:20:56.626Z,1000.69
2018-08-19T00:21:56.663Z,1000.73
2018-08-19T00:22:56.700Z,1000.73
2018-08-19T00:23:56.733Z,1000.71
2018-08-19T00:24:56.770Z,1000.72
2018-08-19T00:25:56.810Z,1000.72
2018-08-19T00:26:56.849Z,1000.73
2018-08-19T00:27:56.894Z,1000.74
2018-08-19T00:28:56.935Z,1000.76
2018-08-19T00:29:56.962Z,1000.74
2018-08-19T00:30:57.000Z,1000.76
2018-08-19T00:31:57.042Z,1000.75
2018-08-19T00:32:57.077Z,1000.77
2018-08-19T00:33:57.118Z,1000.74
2018-08-19T00:34:57.154Z,1000.76
2018-08-19T00:35:57.194Z,1000.74
2018-08-19T00:36:57.234Z,1000.70
2018-08-19T00:37:57.277Z,1000.72
2018-08-19T00:38:57.309Z,1000.70
2018-08-19T00:39:57.346Z,1000.70
2018-08-19T00:40:57.389Z,1000.70
2018-08-19T00:41:57.421Z,1000.67
2018-08-19T00:42:57.459Z,1000.69
2018-08-19T00:43:57.500Z,1000.70
2018-08-19T00:44:57.538Z,1000.69
2018-08-19T00:45:57.574Z,1000.70
2018-08-19T00:46:57.613Z,1000.72
2018-08-19T00:47:57.650Z,1000.77
2018-08-19T00:48:57.696Z,1000.70
2018-08-19T00:49:57.785Z,1000.68
2018-08-19T00:50:57.765Z,1000.73
2018-08-19T00:51:57.803Z,1000.71
2018-08-19T00:52:57.844Z,1000.75
2018-08-19T00:53:57.879Z,1000.74
2018-08-19T00:54:57.920Z,1000.73
2018-08-19T00:55:57.957Z,1000.75
2018-08-19T00:56:57.994Z,1000.71
2018-08-19T00:57:58.045Z,1000.77
2018-08-19T00:58:58.072Z,1000.73
2018-08-19T00:59:58.109Z,1000.76
2018-08-19T01:00:58.148Z,1000.75
2018-08-19T01:01:58.184Z,1000.74
2018-08-19T01:02:58.224Z,1000.74
2018-08-19T01:03:58.263Z,1000.78
2018-08-19T01:04:58.301Z,1000.75
2018-08-19T01:05:58.337Z,1000.79
2018-08-19T01:06:58.375Z,1000.73
2018-08-19T01:07:58.414Z,1000.78
2018-08-19T01:08:58.452Z,1000.75
2018-08-19T01:09:58.490Z,1000.73
2018-08-19T01:10:58.677Z,1000.75
2018-08-19T01:11:58.568Z,1000.76
2018-08-19T01:12:58.611Z,1000.73
2018-08-19T01:13:58.640Z,1000.76
2018-08-19T01:14:58.680Z,1000.76
2018-08-19T01:15:58.724Z,1000.74
2018-08-19T01:16:58.757Z,1000.76
2018-08-19T01:17:58.793Z,1000.74
2018-08-19T01:18:58.831Z,1000.77
2018-08-19T01:19:58.869Z,1000.76
2018-08-19T01:20:58.915Z,1000.79
2018-08-19T01:21:58.951Z,1000.83
2018-08-19T01:22:58.984Z,1000.83
2018-08-19T01:23:59.025Z,1000.84
2018-08-19T01:24:59.059Z,1000.84
2018-08-19T01:25:59.099Z,1000.87
2018-08-19T01:26:59.140Z,1000.85
2018-08-19T01:27:59.174Z,1000.85
2018-08-19T01:28:59.214Z,1000.82
2018-08-19T01:29:59.249Z,1000.83
2018-08-19T01:30:59.288Z,1000.83
2018-08-19T01:31:59.325Z,1000.80
2018-08-19T01:32:59.363Z,1000.79
2018-08-19T01:33:59.402Z,1000.79
2018-08-19T01:34:59.443Z,1000.81
2018-08-19T01:35:59.479Z,1000.78
2018-08-19T01:36:59.568Z,1000.82
2018-08-19T01:37:59.551Z,1000.82
2018-08-19T01:38:59.590Z,1000.86
2018-08-19T01:39:59.629Z,1000.86
2018-08-19T01:40:59.667Z,1000.82
2018-08-19T01:41:59.706Z,1000.83
2018-08-19T01:42:59.742Z,1000.86
2018-08-19T01:43:59.780Z,1000.84
2018-08-19T01:44:59.820Z,1000.84
2018-08-19T01:45:59.855Z,1000.86
2018-08-19T01:46:59.895Z,1000.83
2018-08-19T01:47:59.932Z,1000.80
2018-08-19T01:48:59.971Z,1000.81
2018-08-19T01:50:00.012Z,1000.81
2018-08-19T01:51:00.046Z,1000.84
2018-08-19T01:52:00.085Z,1000.85
2018-08-19T01:53:00.122Z,1000.82
2018-08-19T01:54:00.159Z,1000.85
2018-08-19T01:55:00.198Z,1000.84
2018-08-19T01:56:00.236Z,1000.80
2018-08-19T01:57:00.285Z,1000.79
2018-08-19T01:58:00.312Z,1000.83
2018-08-19T01:59:00.351Z,1000.82
2018-08-19T02:00:00.387Z,1000.86
2018-08-19T02:01:00.427Z,1000.83
2018-08-19T02:02:00.494Z,1000.84
2018-08-19T02:03:00.504Z,1000.87
2018-08-19T02:04:00.544Z,1000.85
2018-08-19T02:05:00.576Z,1000.84
2018-08-19T02:06:00.616Z,1000.83
2018-08-19T02:07:00.654Z,1000.85
2018-08-19T02:08:00.691Z,1000.84
2018-08-19T02:09:00.737Z,1000.78
2018-08-19T02:10:00.766Z,1000.82
2018-08-19T02:11:00.814Z,1000.79
2018-08-19T02:12:00.849Z,1000.82
2018-08-19T02:13:00.881Z,1000.79
2018-08-19T02:14:00.918Z,1000.86
2018-08-19T02:15:00.954Z,1000.82
2018-08-19T02:16:00.996Z,1000.81
2018-08-19T02:17:01.031Z,1000.86
2018-08-19T02:18:01.068Z,1000.85
2018-08-19T02:19:01.108Z,1000.86
2018-08-19T02:20:01.144Z,1000.85
2018-08-19T02:21:01.184Z,1000.90
2018-08-19T02:22:01.218Z,1000.92
2018-08-19T02:23:01.268Z,1000.90
2018-08-19T02:24:01.305Z,1000.87
2018-08-19T02:25:01.342Z,1000.89
2018-08-19T02:26:01.370Z,1000.91
2018-08-19T02:27:01.408Z,1000.87
2018-08-19T02:28:01.452Z,1000.91
2018-08-19T02:29:01.485Z,1000.91
2018-08-19T02:30:01.522Z,1000.85
2018-08-19T02:31:01.560Z,1000.91
2018-08-19T02:32:01.598Z,1000.88
2018-08-19T02:33:01.638Z,1000.91
2018-08-19T02:34:01.672Z,1000.89
2018-08-19T02:35:01.712Z,1000.89
2018-08-19T02:36:01.748Z,1000.88
2018-08-19T02:37:01.791Z,1000.85
2018-08-19T02:38:01.825Z,1000.87
2018-08-19T02:39:01.863Z,1000.87
2018-08-19T02:40:01.914Z,1000.86
2018-08-19T02:41:01.936Z,1000.88
2018-08-19T02:42:01.979Z,1000.88
2018-08-19T02:43:02.025Z,1000.87
2018-08-19T02:44:02.049Z,1000.86
2018-08-19T02:45:02.088Z,1000.85
2018-08-19T02:46:02.126Z,1000.86
2018-08-19T02:47:02.162Z,1000.82
2018-08-19T02:48:02.201Z,1000.83
2018-08-19T02:49:02.239Z,1000.85
2018-08-19T02:50:02.275Z,1000.83
2018-08-19T02:51:02.313Z,1000.80
2018-08-19T02:52:02.349Z,1000.80
2018-08-19T02:53:02.390Z,1000.75
2018-08-19T02:54:02.436Z,1000.76
2018-08-19T02:55:02.463Z,1000.76
2018-08-19T02:56:02.502Z,1000.73
2018-08-19T02:57:02.541Z,1000.75
2018-08-19T02:58:02.576Z,1000.71
2018-08-19T02:59:02.620Z,1000.72
2018-08-19T03:00:02.663Z,1000.69
2018-08-19T03:01:02.691Z,1000.75
2018-08-19T03:02:02.727Z,1000.74
2018-08-19T03:03:02.765Z,1000.74
2018-08-19T03:04:02.806Z,1000.73
2018-08-19T03:05:02.843Z,1000.73
2018-08-19T03:06:02.877Z,1000.73
2018-08-19T03:07:02.917Z,1000.75
2018-08-19T03:08:02.954Z,1000.69
2018-08-19T03:09:02.990Z,1000.76
2018-08-19T03:10:03.030Z,1000.73
2018-08-19T03:11:03.065Z,1000.78
2018-08-19T03:12:03.106Z,1000.74
2018-08-19T03:13:03.141Z,1000.77
2018-08-19T03:14:03.181Z,1000.78
2018-08-19T03:15:03.263Z,1000.77
2018-08-19T03:16:03.254Z,1000.79
2018-08-19T03:17:03.300Z,1000.79
2018-08-19T03:18:03.329Z,1000.80
2018-08-19T03:19:03.366Z,1000.82
2018-08-19T03:20:03.406Z,1000.80
2018-08-19T03:21:03.443Z,1000.80
2018-08-19T03:22:03.483Z,1000.81
2018-08-19T03:23:03.532Z,1000.79
2018-08-19T03:24:03.557Z,1000.74
2018-08-19T03:25:03.593Z,1000.75
2018-08-19T03:26:03.629Z,1000.73
2018-08-19T03:27:03.668Z,1000.71
2018-08-19T03:28:03.705Z,1000.73
2018-08-19T03:29:03.747Z,1000.72
2018-08-19T03:30:03.781Z,1000.70
2018-08-19T03:31:03.817Z,1000.72
2018-08-19T03:32:03.856Z,1000.71
2018-08-19T03:33:03.892Z,1000.72
2018-08-19T03:34:03.931Z,1000.74
2018-08-19T03:35:03.969Z,1000.73
2018-08-19T03:36:04.007Z,1000.72
2018-08-19T03:37:04.043Z,1000.71
2018-08-19T03:38:04.190Z,1000.73
2018-08-19T03:39:04.117Z,1000.73
2018-08-19T03:40:04.155Z,1000.72
2018-08-19T03:41:04.193Z,1000.73
2018-08-19T03:42:04.238Z,1000.72
2018-08-19T03:43:04.267Z,1000.67
2018-08-19T03:44:04.307Z,1000.68
2018-08-19T03:45:04.342Z,1000.69
2018-08-19T03:46:04.378Z,1000.71
2018-08-19T03:47:04.417Z,1000.67
2018-08-19T03:48:04.454Z,1000.67
2018-08-19T03:49:04.491Z,1000.69
2018-08-19T03:50:04.529Z,1000.68
2018-08-19T03:51:04.565Z,1000.67
2018-08-19T03:52:04.603Z,1000.67
2018-08-19T03:53:04.640Z,1000.69
2018-08-19T03:54:04.678Z,1000.69
2018-08-19T03:55:04.716Z,1000.67
2018-08-19T03:56:04.752Z,1000.71
2018-08-19T03:57:04.790Z,1000.75
2018-08-19T03:58:04.828Z,1000.74
2018-08-19T03:59:04.864Z,1000.75
2018-08-19T04:00:04.905Z,1000.73
2018-08-19T04:01:04.940Z,1000.74
2018-08-19T04:02:04.978Z,1000.71
2018-08-19T04:03:05.015Z,1000.77
2018-08-19T04:04:05.052Z,1000.76
2018-08-19T04:05:05.094Z,1000.73
2018-08-19T04:06:05.140Z,1000.71
2018-08-19T04:07:05.173Z,1000.72
2018-08-19T04:08:05.206Z,1000.77
2018-08-19T04:09:05.239Z,1000.79
2018-08-19T04:10:05.276Z,1000.80
2018-08-19T04:11:05.311Z,1000.81
2018-08-19T04:12:05.351Z,1000.82
2018-08-19T04:13:05.389Z,1000.85
2018-08-19T04:14:05.425Z,1000.85
2018-08-19T04:15:05.461Z,1000.92
2018-08-19T04:16:05.501Z,1000.92
2018-08-19T04:17:05.538Z,1000.93
2018-08-19T04:18:05.573Z,1000.89
2018-08-19T04:19:05.612Z,1000.93
2018-08-19T04:20:05.650Z,1000.95
2018-08-19T04:21:05.686Z,1000.95
2018-08-19T04:22:05.725Z,1000.97
2018-08-19T04:23:05.761Z,1000.94
2018-08-19T04:24:05.804Z,1000.96
2018-08-19T04:25:05.836Z,1000.97
2018-08-19T04:26:05.871Z,1001.02
2018-08-19T04:27:05.910Z,1001.03
2018-08-19T04:28:05.947Z,1001.01
2018-08-19T04:29:06.036Z,1001.01
2018-08-19T04:30:06.022Z,1001.02
2018-08-19T04:31:06.060Z,1001.04
2018-08-19T04:32:06.096Z,1001.05
2018-08-19T04:33:06.137Z,1001.03
2018-08-19T04:34:06.171Z,1001.06
2018-08-19T04:35:06.208Z,1001.04
2018-08-19T04:36:06.246Z,1001.05
2018-08-19T04:37:06.283Z,1001.06
2018-08-19T04:38:06.320Z,1001.02
2018-08-19T04:39:06.358Z,1001.04
2018-08-19T04:40:06.405Z,1001.06
2018-08-19T04:41:06.433Z,1001.03
2018-08-19T04:42:06.483Z,1001.03
2018-08-19T04:43:06.507Z,1001.08
2018-08-19T04:44:06.556Z,1001.01
2018-08-19T04:45:06.584Z,1001.00
2018-08-19T04:46:06.619Z,1001.03
2018-08-19T04:47:06.658Z,1001.00
2018-08-19T04:48:06.695Z,1001.05
2018-08-19T04:49:06.731Z,1001.02
2018-08-19T04:50:06.768Z,1001.03
2018-08-19T04:51:06.819Z,1001.02
2018-08-19T04:52:06.843Z,1000.98
2018-08-19T04:53:06.882Z,1001.01
2018-08-19T04:54:06.917Z,1001.03
2018-08-19T04:55:06.955Z,1001.00
2018-08-19T04:56:06.991Z,1001.01
2018-08-19T04:57:07.030Z,1001.04
2018-08-19T04:58:07.066Z,1001.05
2018-08-19T04:59:07.104Z,1001.08
2018-08-19T05:00:07.143Z,1001.06
2018-08-19T05:01:07.188Z,1001.05
2018-08-19T05:02:07.318Z,1001.10
2018-08-19T05:03:07.262Z,1001.10
2018-08-19T05:04:07.291Z,1001.12
2018-08-19T05:05:07.329Z,1001.13
2018-08-19T05:06:07.365Z,1001.13
2018-08-19T05:07:07.404Z,1001.13
2018-08-19T05:08:07.535Z,1001.12
2018-08-19T05:09:07.482Z,1001.17
2018-08-19T05:10:07.516Z,1001.12
2018-08-19T05:11:07.554Z,1001.16
2018-08-19T05:12:07.592Z,1001.17
2018-08-19T05:13:07.627Z,1001.16
2018-08-19T05:14:07.665Z,1001.18
2018-08-19T05:15:07.702Z,1001.16
2018-08-19T05:16:07.754Z,1001.25
2018-08-19T05:17:07.778Z,1001.22
2018-08-19T05:18:07.814Z,1001.25
2018-08-19T05:19:07.851Z,1001.24
2018-08-19T05:20:07.890Z,1001.26
2018-08-19T05:21:07.929Z,1001.25
2018-08-19T05:22:07.966Z,1001.27
2018-08-19T05:23:08.008Z,1001.27
2018-08-19T05:24:08.040Z,1001.30
2018-08-19T05:25:08.078Z,1001.29
2018-08-19T05:26:08.117Z,1001.30
2018-08-19T05:27:08.151Z,1001.30
2018-08-19T05:28:08.196Z,1001.29
2018-08-19T05:29:08.236Z,1001.30
2018-08-19T05:30:08.263Z,1001.28
2018-08-19T05:31:08.302Z,1001.26
2018-08-19T05:32:08.339Z,1001.26
2018-08-19T05:33:08.376Z,1001.21
2018-08-19T05:34:08.414Z,1001.22
2018-08-19T05:35:08.451Z,1001.24
2018-08-19T05:36:08.490Z,1001.18
2018-08-19T05:37:08.529Z,1001.23
2018-08-19T05:38:08.650Z,1001.18
2018-08-19T05:39:08.603Z,1001.16
2018-08-19T05:40:08.641Z,1001.20
2018-08-19T05:41:08.679Z,1001.20
2018-08-19T05:42:08.721Z,1001.16
2018-08-19T05:43:08.753Z,1001.14
2018-08-19T05:44:08.792Z,1001.22
2018-08-19T05:45:08.835Z,1001.17
2018-08-19T05:46:08.867Z,1001.16
2018-08-19T05:47:08.968Z,1001.14
2018-08-19T05:48:08.943Z,1001.13
2018-08-19T05:49:08.981Z,1001.13
2018-08-19T05:50:09.019Z,1001.11
2018-08-19T05:51:09.058Z,1001.11
2018-08-19T05:52:09.093Z,1001.13
2018-08-19T05:53:09.132Z,1001.11
2018-08-19T05:54:09.305Z,1001.14
2018-08-19T05:55:09.206Z,1001.09
2018-08-19T05:56:09.246Z,1001.11
2018-08-19T05:57:09.284Z,1001.14
2018-08-19T05:58:09.320Z,1001.12
2018-08-19T05:59:09.368Z,1001.15
2018-08-19T06:00:09.394Z,1001.18
2018-08-19T06:01:09.437Z,1001.19
2018-08-19T06:02:09.470Z,1001.19
2018-08-19T06:03:09.510Z,1001.19
2018-08-19T06:04:09.556Z,1001.18
2018-08-19T06:05:09.584Z,1001.19
2018-08-19T06:06:09.622Z,1001.23
2018-08-19T06:07:09.660Z,1001.20
2018-08-19T06:08:09.697Z,1001.17
2018-08-19T06:09:09.738Z,1001.13
2018-08-19T06:10:09.782Z,1001.13
2018-08-19T06:11:09.812Z,1001.13
2018-08-19T06:12:09.850Z,1001.08
2018-08-19T06:13:09.889Z,1001.12
2018-08-19T06:14:09.924Z,1001.06
2018-08-19T06:15:09.964Z,1001.06
2018-08-19T06:16:10.006Z,1001.04
2018-08-19T06:17:10.041Z,1001.05
2018-08-19T06:18:10.077Z,1001.07
2018-08-19T06:19:10.116Z,1001.07
2018-08-19T06:20:10.157Z,1001.10
2018-08-19T06:21:10.199Z,1001.09
2018-08-19T06:22:10.234Z,1001.10
2018-08-19T06:23:10.424Z,1001.09
2018-08-19T06:24:10.321Z,1001.06
2018-08-19T06:25:10.449Z,1001.08
2018-08-19T06:26:10.386Z,1001.10
2018-08-19T06:27:10.424Z,1001.08
2018-08-19T06:28:10.462Z,1001.06
2018-08-19T06:29:10.500Z,1001.03
2018-08-19T06:30:10.539Z,1001.02
2018-08-19T06:31:10.595Z,1001.02
2018-08-19T06:32:10.616Z,1001.02
2018-08-19T06:33:10.668Z,1001.06
2018-08-19T06:34:10.696Z,1001.07
2018-08-19T06:35:10.728Z,1001.04
2018-08-19T06:36:10.769Z,1001.04
2018-08-19T06:37:10.805Z,1001.04
2018-08-19T06:38:10.842Z,1001.00
2018-08-19T06:39:10.881Z,1001.01
2018-08-19T06:40:10.922Z,1000.99
2018-08-19T06:41:10.958Z,1001.04
2018-08-19T06:42:10.998Z,1001.06
2018-08-19T06:43:11.112Z,1001.03
2018-08-19T06:44:11.079Z,1001.02
2018-08-19T06:45:11.116Z,1001.06
2018-08-19T06:46:11.156Z,1001.07
2018-08-19T06:47:11.197Z,1001.05
2018-08-19T06:48:11.233Z,1001.07
2018-08-19T06:49:11.270Z,1001.05
2018-08-19T06:50:11.308Z,1001.06
2018-08-19T06:51:11.411Z,1001.08
2018-08-19T06:52:11.429Z,1001.00
2018-08-19T06:53:11.424Z,1001.02
2018-08-19T06:54:11.463Z,1001.07
2018-08-19T06:55:11.502Z,1001.04
2018-08-19T06:56:11.538Z,1000.99
2018-08-19T06:57:11.587Z,1000.99
2018-08-19T06:58:11.616Z,1000.98
2018-08-19T06:59:11.654Z,1000.98
2018-08-19T07:00:11.693Z,1000.91
2018-08-19T07:01:11.737Z,1000.91
2018-08-19T07:02:11.781Z,1000.91
2018-08-19T07:03:11.873Z,1000.90
2018-08-19T07:04:11.847Z,1000.92
2018-08-19T07:05:11.886Z,1000.91
2018-08-19T07:06:11.928Z,1000.90
2018-08-19T07:07:11.964Z,1000.88
2018-08-19T07:08:12.004Z,1000.86
2018-08-19T07:09:12.046Z,1000.79
2018-08-19T07:10:12.088Z,1000.78
2018-08-19T07:11:12.125Z,1000.86
2018-08-19T07:12:12.169Z,1000.88
2018-08-19T07:13:12.200Z,1000.87
2018-08-19T07:14:12.238Z,1000.89
2018-08-19T07:15:12.282Z,1000.85
2018-08-19T07:16:12.316Z,1000.88
2018-08-19T07:17:12.362Z,1000.86
2018-08-19T07:18:12.403Z,1000.89
2018-08-19T07:19:12.435Z,1000.86
2018-08-19T07:20:12.479Z,1000.89
2018-08-19T07:21:12.573Z,1000.89
2018-08-19T07:22:13.047Z,1000.88
2018-08-19T07:23:12.598Z,1000.91
2018-08-19T07:24:12.631Z,1000.91
2018-08-19T07:25:12.673Z,1000.86
2018-08-19T07:26:12.709Z,1000.86
2018-08-19T07:27:12.757Z,1000.87
2018-08-19T07:28:12.789Z,1000.88
2018-08-19T07:29:12.890Z,1000.86
2018-08-19T07:30:12.966Z,1000.84
2018-08-19T07:31:12.906Z,1000.82
2018-08-19T07:32:12.947Z,1000.84
2018-08-19T07:33:13.015Z,1000.81
2018-08-19T07:34:13.029Z,1000.79
2018-08-19T07:35:13.068Z,1000.78
2018-08-19T07:36:13.413Z,1000.77
2018-08-19T07:37:13.367Z,1000.82
2018-08-19T07:38:13.183Z,1000.81
2018-08-19T07:39:13.223Z,1000.81
2018-08-19T07:40:13.261Z,1000.79
2018-08-19T07:41:13.307Z,1000.76
2018-08-19T07:42:13.350Z,1000.81
2018-08-19T07:43:13.378Z,1000.76
2018-08-19T07:44:13.421Z,1000.77
2018-08-19T07:45:13.463Z,1000.73
2018-08-19T07:46:13.509Z,1000.73
2018-08-19T07:47:13.543Z,1000.71
2018-08-19T07:48:13.584Z,1000.72
2018-08-19T07:49:13.619Z,1000.69
2018-08-19T07:50:13.657Z,1000.70
2018-08-19T07:51:13.723Z,1000.66
2018-08-19T07:52:13.741Z,1000.64
2018-08-19T07:53:13.780Z,1000.67
2018-08-19T07:54:13.819Z,1000.65
2018-08-19T07:55:13.865Z,1000.72
2018-08-19T07:56:13.901Z,1000.68
2018-08-19T07:57:13.939Z,1000.72
2018-08-19T07:58:13.977Z,1000.68
2018-08-19T07:59:14.016Z,1000.68
2018-08-19T08:00:14.058Z,1000.73
2018-08-19T08:01:14.106Z,1000.69
2018-08-19T08:02:14.136Z,1000.69
2018-08-19T08:03:14.176Z,1000.65
2018-08-19T08:04:14.224Z,1000.72
2018-08-19T08:05:14.264Z,1000.73
2018-08-19T08:06:14.296Z,1000.69
2018-08-19T08:07:14.337Z,1000.70
2018-08-19T08:08:14.381Z,1000.66
2018-08-19T08:09:14.418Z,1000.69
2018-08-19T08:10:14.464Z,1000.68
2018-08-19T08:11:14.506Z,1000.70
2018-08-19T08:12:14.537Z,1000.70
2018-08-19T08:13:14.584Z,1000.69
2018-08-19T08:14:14.621Z,1000.69
2018-08-19T08:15:14.658Z,1000.70
2018-08-19T08:16:14.703Z,1000.71
2018-08-19T08:17:14.740Z,1000.63
2018-08-19T08:18:14.780Z,1000.62
2018-08-19T08:19:14.868Z,1000.61
2018-08-19T08:20:14.860Z,1000.63
2018-08-19T08:21:15.025Z,1000.65
2018-08-19T08:22:14.940Z,1000.62
2018-08-19T08:23:15.031Z,1000.60
2018-08-19T08:24:15.023Z,1000.62
2018-08-19T08:25:15.062Z,1000.61
2018-08-19T08:26:15.102Z,1000.62
2018-08-19T08:27:15.141Z,1000.63
2018-08-19T08:28:15.183Z,1000.62
2018-08-19T08:29:15.298Z,1000.59
2018-08-19T08:30:15.272Z,1000.59
2018-08-19T08:31:15.312Z,1000.61
2018-08-19T08:32:15.346Z,1000.56
2018-08-19T08:33:15.386Z,1000.61
2018-08-19T08:34:15.453Z,1000.56
2018-08-19T08:35:15.473Z,1000.53
2018-08-19T08:36:15.515Z,1000.52
2018-08-19T08:37:15.548Z,1000.55
2018-08-19T08:38:15.588Z,1000.54
2018-08-19T08:39:15.629Z,1000.51
2018-08-19T08:40:15.669Z,1000.46
2018-08-19T08:41:15.713Z,1000.47
2018-08-19T08:42:15.750Z,1000.49
2018-08-19T08:43:15.792Z,1000.49
2018-08-19T08:44:15.833Z,1000.46
2018-08-19T08:45:15.873Z,1000.46
2018-08-19T08:46:15.914Z,1000.43
2018-08-19T08:47:15.954Z,1000.45
2018-08-19T08:48:15.996Z,1000.44
2018-08-19T08:49:16.037Z,1000.47
2018-08-19T08:50:16.085Z,1000.47
2018-08-19T08:51:16.130Z,1000.43
2018-08-19T08:52:16.163Z,1000.40
2018-08-19T08:53:16.217Z,1000.40
2018-08-19T08:54:16.241Z,1000.39
2018-08-19T08:55:16.296Z,1000.43
2018-08-19T08:56:16.352Z,1000.38
2018-08-19T08:57:16.376Z,1000.39
2018-08-19T08:58:16.419Z,1000.41
2018-08-19T08:59:16.451Z,1000.35
2018-08-19T09:00:16.505Z,1000.38
2018-08-19T09:01:16.532Z,1000.34
2018-08-19T09:02:16.570Z,1000.34
2018-08-19T09:03:16.689Z,1000.34
2018-08-19T09:04:16.653Z,1000.33
2018-08-19T09:05:16.693Z,1000.30
2018-08-19T09:06:16.734Z,1000.28
2018-08-19T09:07:16.776Z,1000.30
2018-08-19T09:08:16.818Z,1000.31
2018-08-19T09:09:16.859Z,1000.27
2018-08-19T09:10:16.900Z,1000.26
2018-08-19T09:11:16.942Z,1000.25
2018-08-19T09:12:16.982Z,1000.22
2018-08-19T09:13:17.027Z,1000.24
2018-08-19T09:14:17.064Z,1000.23
2018-08-19T09:15:17.108Z,1000.20
2018-08-19T09:16:17.149Z,1000.20
2018-08-19T09:17:17.190Z,1000.17
2018-08-19T09:18:17.235Z,1000.20
2018-08-19T09:19:17.304Z,1000.20
2018-08-19T09:20:17.314Z,1000.18
2018-08-19T09:21:17.356Z,1000.19
2018-08-19T09:22:17.468Z,1000.17
2018-08-19T09:23:17.597Z,1000.19
2018-08-19T09:24:17.491Z,1000.15
2018-08-19T09:25:17.524Z,1000.13
2018-08-19T09:26:17.566Z,1000.17
2018-08-19T09:27:17.606Z,1000.12
2018-08-19T09:28:17.648Z,1000.12
2018-08-19T09:29:17.689Z,1000.08
2018-08-19T09:30:17.738Z,1000.11
2018-08-19T09:31:17.772Z,1000.10
2018-08-19T09:32:17.819Z,1000.13
2018-08-19T09:33:17.854Z,1000.08
2018-08-19T09:34:17.896Z,1000.08
2018-08-19T09:35:18.167Z,1000.06
2018-08-19T09:36:17.981Z,1000.07
2018-08-19T09:37:18.025Z,1000.03
2018-08-19T09:38:18.060Z,1000.07
2018-08-19T09:39:18.104Z,1000.03
2018-08-19T09:40:18.148Z,999.99
2018-08-19T09:41:18.203Z,1000.03
2018-08-19T09:42:18.232Z,999.99
2018-08-19T09:43:18.278Z,999.97
2018-08-19T09:44:18.317Z,999.98
2018-08-19T09:45:18.359Z,999.96
2018-08-19T09:47:18.445Z,999.93
2018-08-19T09:48:18.482Z,999.94
2018-08-19T09:49:18.529Z,999.90
2018-08-19T09:50:18.565Z,999.89
2018-08-19T09:51:18.609Z,999.88
2018-08-19T09:52:18.651Z,999.85
2018-08-19T09:53:18.697Z,999.85
2018-08-19T09:54:18.782Z,999.84
2018-08-19T09:55:18.788Z,999.84
2018-08-19T09:56:18.818Z,999.83
2018-08-19T09:57:18.862Z,999.82
2018-08-19T09:58:18.903Z,999.79
2018-08-19T09:59:18.956Z,999.86
2018-08-19T10:00:18.986Z,999.85
2018-08-19T10:01:19.029Z,999.80
2018-08-19T10:02:19.072Z,999.80
2018-08-19T10:03:19.128Z,999.81
2018-08-19T10:04:19.154Z,999.76
2018-08-19T10:05:19.197Z,999.81
2018-08-19T10:06:19.243Z,999.79
2018-08-19T10:07:19.355Z,999.77
2018-08-19T10:08:19.324Z,999.76
2018-08-19T10:09:19.368Z,999.71
2018-08-19T10:10:19.407Z,999.71
2018-08-19T10:11:19.457Z,999.74
2018-08-19T10:12:19.498Z,999.72
2018-08-19T10:13:19.536Z,999.69
2018-08-19T10:14:19.580Z,999.67
2018-08-19T10:15:19.622Z,999.68
2018-08-19T10:16:19.767Z,999.66
2018-08-19T10:17:20.022Z,999.64
2018-08-19T10:18:19.750Z,999.62
2018-08-19T10:19:19.791Z,999.61
2018-08-19T10:20:19.839Z,999.62
2018-08-19T10:21:19.877Z,999.59
2018-08-19T10:22:19.919Z,999.65
2018-08-19T10:23:19.960Z,999.64
2018-08-19T10:24:20.004Z,999.51
2018-08-19T10:25:20.063Z,999.58
2018-08-19T10:26:20.104Z,999.54
2018-08-19T10:27:20.149Z,999.52
2018-08-19T10:28:20.176Z,999.52
2018-08-19T10:29:20.214Z,999.52
2018-08-19T10:30:20.271Z,999.51
2018-08-19T10:31:20.304Z,999.48
2018-08-19T10:32:20.342Z,999.44
2018-08-19T10:33:20.387Z,999.43
2018-08-19T10:34:20.428Z,999.35
2018-08-19T10:35:20.469Z,999.27
2018-08-19T10:36:20.513Z,999.31
2018-08-19T10:37:20.557Z,999.30
2018-08-19T10:38:20.597Z,999.29
2018-08-19T10:39:20.643Z,999.32
2018-08-19T10:40:20.683Z,999.39
2018-08-19T10:41:20.725Z,999.32
2018-08-19T10:42:20.778Z,999.26
2018-08-19T10:43:20.814Z,999.28
2018-08-19T10:44:20.859Z,999.26
2018-08-19T10:45:21.002Z,999.25
2018-08-19T10:46:20.970Z,999.28
2018-08-19T10:47:20.985Z,999.23
2018-08-19T10:48:21.036Z,999.22
2018-08-19T10:49:21.072Z,999.20
2018-08-19T10:50:21.132Z,999.25
2018-08-19T10:51:21.159Z,999.26
2018-08-19T10:52:21.200Z,999.23
2018-08-19T10:53:21.283Z,999.27
2018-08-19T10:54:21.286Z,999.19
2018-08-19T10:55:21.327Z,999.16
2018-08-19T10:56:21.371Z,999.18
2018-08-19T10:57:21.562Z,999.11
2018-08-19T10:58:21.503Z,999.08
2018-08-19T10:59:21.506Z,999.09
2018-08-19T11:00:21.542Z,999.08
2018-08-19T11:01:21.587Z,999.08
2018-08-19T11:02:21.630Z,999.07
2018-08-19T11:03:21.675Z,999.05
2018-08-19T11:04:21.730Z,999.03
2018-08-19T11:05:21.759Z,999.03
2018-08-19T11:06:21.809Z,999.02
2018-08-19T11:07:21.849Z,999.01
2018-08-19T11:08:21.909Z,999.04
2018-08-19T11:09:21.935Z,999.05
2018-08-19T11:10:21.976Z,999.08
2018-08-19T11:11:22.020Z,999.07
2018-08-19T11:12:22.063Z,999.05
2018-08-19T11:13:22.187Z,998.93
2018-08-19T11:14:22.151Z,998.95
2018-08-19T11:15:22.194Z,998.95
2018-08-19T11:16:22.237Z,998.93
2018-08-19T11:17:22.297Z,998.91
2018-08-19T11:18:22.358Z,998.91
2018-08-19T11:19:22.377Z,998.88
2018-08-19T11:20:22.415Z,998.86
2018-08-19T11:21:22.474Z,998.84
2018-08-19T11:22:22.502Z,998.81
2018-08-19T11:23:22.547Z,998.89
2018-08-19T11:24:22.587Z,998.84
2018-08-19T11:25:22.648Z,998.88
2018-08-19T11:26:22.671Z,998.88
2018-08-19T11:27:22.717Z,998.83
2018-08-19T11:28:22.759Z,998.89
2018-08-19T11:29:23.018Z,998.84
2018-08-19T11:30:22.847Z,998.79
2018-08-19T11:31:22.964Z,998.77
2018-08-19T11:32:22.934Z,998.74
2018-08-19T11:33:22.979Z,998.73
2018-08-19T11:34:23.022Z,998.67
2018-08-19T11:35:23.071Z,998.68
2018-08-19T11:36:23.109Z,998.70
2018-08-19T11:37:23.152Z,998.63
2018-08-19T11:38:23.196Z,998.66
2018-08-19T11:39:23.242Z,998.64
2018-08-19T11:40:23.284Z,998.63
2018-08-19T11:41:23.328Z,998.62
2018-08-19T11:42:23.373Z,998.64
2018-08-19T11:43:23.471Z,998.68
2018-08-19T11:44:23.466Z,998.60
2018-08-19T11:45:23.504Z,998.60
2018-08-19T11:46:23.546Z,998.56
2018-08-19T11:47:23.592Z,998.61
2018-08-19T11:48:23.635Z,998.61
2018-08-19T11:49:23.738Z,998.57
2018-08-19T11:50:23.724Z,998.56
2018-08-19T11:51:23.768Z,998.54
2018-08-19T11:52:23.811Z,998.56
2018-08-19T11:53:23.854Z,998.54
2018-08-19T11:54:23.898Z,998.55
2018-08-19T11:55:23.967Z,998.48
2018-08-19T11:56:23.988Z,998.48
2018-08-19T11:57:24.038Z,998.46
2018-08-19T11:58:24.077Z,998.47
2018-08-19T11:59:24.121Z,998.41
2018-08-19T12:00:24.161Z,998.42
2018-08-19T12:01:24.207Z,998.39
2018-08-19T12:02:24.249Z,998.43
2018-08-19T12:03:24.294Z,998.39
2018-08-19T12:04:24.338Z,998.42
2018-08-19T12:05:24.389Z,998.38
2018-08-19T12:06:24.424Z,998.38
2018-08-19T12:07:24.478Z,998.37
2018-08-19T12:08:24.514Z,998.39
2018-08-19T12:09:24.582Z,998.42
2018-08-19T12:10:24.633Z,998.37
2018-08-19T12:11:24.647Z,998.38
2018-08-19T12:12:24.697Z,998.40